Latest Weather Observations for Mildura

IDV60801

Issued at 3:22 pm EST Saturday 2 July 2022 (issued every 10 minutes, with the page automatically refreshed every 10 minutes)

About weather observations | Map of weather stations | Latest weather observations for VIC | Other Formats
Station Details ID: 076031 Name: MILDURA AIRPORT Lat: -34.24 Lon: 142.09 Height: 50.0 m
Data from the previous 72 hours. | See also: Recent months at Mildura
Date/Time
EST
Temp
°C
App
Temp
°C
Dew
Point
°C
Rel
Hum
%
Delta-T
°C
Wind Press
QNH
hPa
Press
MSL
hPa
Rain since
9am
mm
Dir  Spd
km/h
Gust
km/h
Spd
kts
Gust
kts
02/03:00pm 12.1 7.1 4.6 60 3.4 S 20 33 11 18 1027.9 1028.0 0.0
02/02:30pm 11.9 6.9 3.4 56 3.8 S 19 32 10 17 1028.0 1028.1 0.0
02/02:00pm 11.4 6.3 3.9 60 3.3 SSE 20 33 11 18 1028.2 1028.3 0.0
02/01:30pm 12.0 7.2 4.5 60 3.4 S 19 28 10 15 1028.4 1028.5 0.0
02/01:00pm 11.1 6.3 4.6 64 2.9 S 19 30 10 16 1029.1 1029.2 0.0
02/12:30pm 10.9 6.5 4.8 66 2.8 S 17 28 9 15 1029.5 1029.6 0.0
02/12:00pm 10.5 6.2 5.3 70 2.4 S 17 24 9 13 1030.0 1030.1 0.0
02/11:30am 10.0 6.1 5.2 72 2.2 S 15 24 8 13 1030.3 1030.4 0.0
02/11:00am 9.4 5.5 5.2 75 1.9 SSE 15 24 8 13 1030.5 1030.6 0.0
02/10:30am 8.4 4.4 5.0 79 1.5 S 15 20 8 11 1030.7 1030.8 0.0
02/10:00am 7.3 3.7 4.8 84 1.1 S 13 20 7 11 1030.8 1030.9 0.0
02/09:30am 6.2 2.1 4.5 89 0.7 S 15 20 8 11 1030.6 1030.7 0.0
02/09:00am 4.7 0.9 3.7 93 0.4 SSW 13 20 7 11 1030.6 1030.7 0.0
02/08:30am 4.6 0.7 3.4 92 0.5 SSW 13 20 7 11 1030.6 1030.7 0.0
02/08:00am 4.2 0.2 3.0 92 0.5 SSW 13 20 7 11 1030.5 1030.6 0.0
02/07:30am 4.1 0.5 2.8 91 0.5 SSW 11 19 6 10 1030.4 1030.5 0.0
02/07:00am 3.8 0.1 2.5 91 0.5 SSW 11 17 6 9 1030.0 1030.1 0.0
02/06:30am 3.8 -0.3 2.5 91 0.5 SSW 13 17 7 9 1029.8 1029.9 0.0
02/06:00am 3.8 -0.3 2.5 91 0.5 SSW 13 17 7 9 1029.7 1029.8 0.0
02/05:30am 3.5 -0.6 2.3 92 0.5 SSW 13 17 7 9 1029.6 1029.7 0.0
02/05:00am 3.2 -0.6 1.9 91 0.5 SSW 11 17 6 9 1029.8 1029.9 0.0
02/04:30am 3.2 -1.0 1.9 91 0.5 SSW 13 17 7 9 1029.8 1029.9 0.0
02/04:00am 3.9 -0.2 2.1 88 0.7 SSW 13 19 7 10 1029.9 1030.0 0.0
02/03:30am 4.0 -0.1 2.2 88 0.7 SSW 13 17 7 9 1029.9 1030.0 0.0
02/03:00am 3.9 -0.2 2.3 89 0.6 SSW 13 19 7 10 1030.1 1030.2 0.0
02/02:30am 3.9 -0.2 2.3 89 0.6 SSW 13 17 7 9 1030.2 1030.3 0.0
02/02:00am 4.1 0.4 2.3 88 0.7 SSW 11 17 6 9 1030.3 1030.4 0.0
02/01:30am 4.5 0.4 2.5 87 0.8 SSW 13 17 7 9 1030.5 1030.6 0.0
02/01:00am 5.0 1.4 2.7 85 0.9 SSW 11 17 6 9 1030.6 1030.7 0.0
02/12:30am 5.3 1.7 2.8 84 1.0 SSW 11 19 6 10 1030.6 1030.7 0.0
02/12:00am 5.8 1.8 3.0 82 1.1 SSW 13 17 7 9 1030.9 1031.0 0.0
 
Date/Time
EST
Temp
°C
App
Temp
°C
Dew
Point
°C
Rel
Hum
%
Delta-T
°C
Wind Press
QNH
hPa
Press
MSL
hPa
Rain since
9am
mm
Dir  Spd
km/h
Gust
km/h
Spd
kts
Gust
kts
01/11:30pm 5.9 2.3 3.2 83 1.1 SSW 11 15 6 8 1031.0 1031.1 0.0
01/11:00pm 5.6 2.0 3.1 84 1.0 SW 11 15 6 8 1031.1 1031.2 0.0
01/10:30pm 5.4 2.2 2.9 84 1.0 SW 9 13 5 7 1031.0 1031.1 0.0
01/10:00pm 5.6 2.4 2.9 83 1.1 SW 9 13 5 7 1030.9 1031.0 0.0
01/09:30pm 6.0 2.8 3.0 81 1.2 SW 9 13 5 7 1030.6 1030.7 0.0
01/09:00pm 6.6 3.8 3.2 79 1.4 SW 7 11 4 6 1030.6 1030.7 0.0
01/08:30pm 7.0 3.9 3.4 78 1.5 SW 9 11 5 6 1030.5 1030.6 0.0
01/08:00pm 8.1 4.6 3.6 73 1.9 SW 11 17 6 9 1030.3 1030.4 0.0
01/07:30pm 8.6 5.2 3.8 72 2.1 SW 11 15 6 8 1030.1 1030.2 0.0
01/07:00pm 9.4 6.1 4.4 71 2.2 SW 11 17 6 9 1029.7 1029.8 0.0
01/06:30pm 10.7 7.4 4.6 66 2.7 SSW 11 17 6 9 1029.5 1029.6 0.0
01/06:00pm 11.0 7.8 4.9 66 2.8 SSW 11 19 6 10 1029.3 1029.4 0.0
01/05:30pm 11.3 7.7 5.0 65 2.9 SSW 13 17 7 9 1029.0 1029.1 0.0
01/05:00pm 12.0 8.0 5.0 62 3.2 SSW 15 22 8 12 1029.1 1029.2 0.0
01/04:30pm 12.3 7.9 5.0 61 3.4 SSW 17 26 9 14 1028.8 1028.9 0.0
01/04:00pm 12.9 8.1 4.6 57 3.8 SSW 19 32 10 17 1028.6 1028.7 0.0
01/03:30pm 13.5 9.2 5.4 58 3.8 S 17 24 9 13 1028.7 1028.8 0.0
01/03:00pm 13.2 8.8 4.9 57 3.8 S 17 30 9 16 1028.9 1029.0 0.0
01/02:30pm 13.0 7.7 5.2 59 3.6 S 22 33 12 18 1028.9 1029.0 0.0
01/02:00pm 13.0 8.1 5.2 59 3.6 S 20 32 11 17 1029.0 1029.1 0.0
01/01:30pm 13.1 8.4 5.0 58 3.8 S 19 32 10 17 1029.3 1029.4 0.0
01/01:00pm 12.8 8.0 5.5 61 3.4 S 20 32 11 17 1029.8 1029.9 0.0
01/12:30pm 12.8 8.5 6.8 67 2.9 S 19 28 10 15 1030.1 1030.2 0.0
01/12:00pm 12.2 7.9 6.9 70 2.5 SSE 19 30 10 16 1030.7 1030.8 0.0
01/11:30am 11.4 6.4 6.5 72 2.3 SSE 22 35 12 19 1031.0 1031.1 0.0
01/11:00am 10.7 6.6 7.8 82 1.4 SSE 19 24 10 13 1031.0 1031.1 0.0
01/10:30am 9.6 6.7 8.0 90 0.8 S 13 20 7 11 1031.2 1031.3 0.0
01/10:06am 7.9 4.6 7.9 100 0.0 SSE 15 22 8 12 1031.3 1031.4 0.0
01/10:00am 7.8 4.4 7.8 100 0.0 SSE 15 20 8 11 1031.4 1031.5 0.0
01/09:46am 7.0 3.5 7.0 100 0.0 SSE 15 20 8 11 1031.2 1031.3 0.0
01/09:30am 6.0 3.0 6.0 100 0.0 S 11 15 6 8 1030.9 1031.0 0.0
01/09:16am 5.6 2.5 5.6 100 0.0 S 11 19 6 10 1030.6 1030.7 0.0
01/09:00am 5.0 1.4 5.0 100 0.0 S 13 19 7 10 1030.4 1030.5 0.2
01/08:30am 3.4 -0.1 3.3 99 0.0 S 11 13 6 7 1029.9 1030.0 0.2
01/08:13am 2.6 -1.1 2.5 99 0.0 SSW 11 13 6 7 1029.8 1029.9 0.2
01/08:10am 2.5 -1.2 2.4 99 0.0 SSW 11 13 6 7 1029.7 1029.8 0.2
01/08:07am 2.5 -1.2 2.4 99 0.0 SSW 11 15 6 8 1029.7 1029.8 0.2
01/08:00am 2.3 -1.4 2.2 99 0.0 SSW 11 15 6 8 1029.6 1029.7 0.2
01/07:30am 2.4 -0.9 2.3 99 0.0 S 9 17 5 9 1029.3 1029.4 0.2
01/07:00am 2.1 -1.3 2.0 99 0.0 SSW 9 13 5 7 1029.1 1029.2 0.2
01/06:30am 2.5 -1.2 2.4 99 0.0 SSW 11 15 6 8 1028.9 1029.0 0.2
01/06:00am 2.6 -1.1 2.5 99 0.0 SSW 11 15 6 8 1028.8 1028.9 0.2
01/05:30am 2.8 -0.8 2.7 99 0.0 SSW 11 15 6 8 1028.7 1028.8 0.2
01/05:00am 2.9 -0.7 2.8 99 0.0 SSW 11 15 6 8 1028.3 1028.4 0.0
01/04:30am 3.2 -0.4 3.1 99 0.0 SSW 11 13 6 7 1028.2 1028.3 0.0
01/04:00am 3.4 0.2 3.0 97 0.2 SSW 9 13 5 7 1028.1 1028.2 0.0
01/03:30am 4.1 0.6 3.7 97 0.2 S 11 17 6 9 1028.0 1028.1 0.0
01/03:00am 4.0 0.5 3.6 97 0.2 SSW 11 15 6 8 1027.9 1028.0 0.0
01/02:30am 4.3 0.8 3.7 96 0.2 SSW 11 17 6 9 1027.9 1028.0 0.0
01/02:00am 4.6 1.2 4.2 97 0.2 SSW 11 15 6 8 1027.8 1027.9 0.0
01/01:30am 4.7 1.7 4.1 96 0.3 S 9 11 5 6 1027.8 1027.9 0.0
01/01:00am 5.0 1.3 4.4 96 0.3 SSW 13 15 7 8 1027.9 1028.0 0.0
01/12:30am 5.3 2.4 4.7 96 0.3 SSW 9 13 5 7 1027.9 1028.0 0.0
01/12:00am 5.4 2.1 4.8 96 0.3 SSW 11 13 6 7 1028.0 1028.1 0.0
 
Date/Time
EST
Temp
°C
App
Temp
°C
Dew
Point
°C
Rel
Hum
%
Delta-T
°C
Wind Press
QNH
hPa
Press
MSL
hPa
Rain since
9am
mm
Dir  Spd
km/h
Gust
km/h
Spd
kts
Gust
kts
30/11:30pm 5.9 3.1 5.2 95 0.3 S 9 11 5 6 1028.0 1028.1 0.0
30/11:00pm 6.0 3.2 5.3 95 0.3 SSW 9 11 5 6 1028.0 1028.1 0.0
30/10:30pm 6.4 3.7 5.5 94 0.4 SSW 9 11 5 6 1027.7 1027.8 0.0
30/10:00pm 6.9 4.2 5.8 93 0.5 S 9 15 5 8 1027.4 1027.5 0.0
30/09:30pm 6.9 3.9 6.0 94 0.4 SSW 11 15 6 8 1027.2 1027.3 0.0
30/09:00pm 7.1 4.5 5.9 92 0.5 SSW 9 13 5 7 1027.0 1027.1 0.0
30/08:30pm 8.3 5.8 6.4 88 0.9 SSW 9 13 5 7 1026.7 1026.8 0.0
30/08:00pm 9.0 6.6 6.8 86 1.0 S 9 15 5 8 1026.4 1026.5 0.0
30/07:30pm 9.4 6.7 7.2 86 1.0 S 11 17 6 9 1026.1 1026.2 0.0
30/07:00pm 9.2 6.7 6.6 84 1.2 SSW 9 15 5 8 1025.5 1025.6 0.0
30/06:30pm 9.7 7.2 6.4 80 1.5 S 9 11 5 6 1025.1 1025.2 0.0
30/06:00pm 10.6 8.5 6.6 76 1.9 SSE 7 9 4 5 1024.6 1024.7 0.0
30/05:30pm 11.8 9.4 7.1 73 2.3 SSE 9 15 5 8 1024.4 1024.5 0.0
30/05:00pm 12.9 9.8 7.1 68 2.8 SSE 13 19 7 10 1024.2 1024.3 0.0
30/04:30pm 13.8 11.3 6.7 62 3.4 S 9 15 5 8 1023.9 1023.9 0.0
30/04:00pm 13.5 11.4 6.8 64 3.2 S 7 11 4 6 1023.8 1023.8 0.0
30/03:30pm 12.9 10.1 8.6 75 2.2 SSW 13 24 7 13 1023.8 1023.8 0.0
30/03:00pm 14.1 11.4 7.2 63 3.4 SSE 11 20 6 11 1023.6 1023.6 0.0
30/02:30pm 13.6 11.2 7.2 65 3.1 S 9 17 5 9 1023.5 1023.5 0.0
30/02:00pm 14.1 11.6 8.1 67 3.0 S 11 15 6 8 1023.4 1023.4 0.0
30/01:30pm 13.7 11.5 7.7 67 3.0 SW 9 15 5 8 1023.6 1023.6 0.0
30/01:00pm 13.5 11.4 8.4 71 2.5 SE 9 11 5 6 1023.8 1023.8 0.0
30/12:30pm 13.2 11.8 8.7 74 2.3 S 6 11 3 6 1024.0 1024.1 0.0
30/12:00pm 12.4 10.6 8.1 75 2.1 S 7 13 4 7 1024.4 1024.5 0.0
30/11:33am 12.2 9.8 8.5 78 1.8 S 11 17 6 9 1024.8 1024.9 0.0
30/11:30am 11.8 9.6 7.9 77 1.9 S 9 15 5 8 1024.8 1024.9 0.0
30/11:07am 11.8 9.3 8.3 79 1.7 S 11 17 6 9 1024.9 1025.0 0.0
30/11:00am 11.6 9.1 8.3 80 1.6 S 11 17 6 9 1024.8 1024.9 0.0
30/10:30am 10.6 8.4 8.0 84 1.3 SSW 9 17 5 9 1024.7 1024.8 0.0
30/10:00am 9.0 7.0 7.0 87 0.9 SSW 7 9 4 5 1024.6 1024.7 0.0
30/09:30am 8.0 6.1 6.5 90 0.7 WNW 6 9 3 5 1024.4 1024.5 0.0
30/09:00am 6.9 6.0 6.0 94 0.4 CALM 0 0 0 0 1024.2 1024.3 0.0
30/08:30am 3.7 2.3 3.6 99 0.0 CALM 0 0 0 0 1023.9 1023.9 0.0
30/08:00am 2.3 0.7 2.2 99 0.0 CALM 0 0 0 0 1023.4 1023.4 0.0
30/07:30am 2.1 0.4 2.0 99 0.0 CALM 0 0 0 0 1023.0 1023.0 0.0
30/07:00am 1.7 -0.1 1.1 96 0.2 CALM 0 0 0 0 1022.6 1022.6 0.0
30/06:30am 2.4 0.3 1.5 94 0.3 W 2 6 1 3 1022.1 1022.1 0.0
30/06:00am 3.8 0.9 2.5 91 0.5 WNW 7 7 4 4 1021.9 1021.9 0.0
30/05:30am 4.4 1.2 2.9 90 0.6 W 9 11 5 6 1021.5 1021.5 0.0
30/05:00am 4.9 2.1 2.9 87 0.8 NW 7 9 4 5 1021.4 1021.4 0.0
30/04:30am 3.9 1.1 1.8 86 0.8 WNW 6 9 3 5 1021.5 1021.5 0.0
30/04:00am 5.1 2.1 2.3 82 1.1 WNW 7 13 4 7 1021.6 1021.6 0.0
30/03:30am 5.5 2.6 2.5 81 1.2 NW 7 11 4 6 1021.5 1021.5 0.0
30/03:00am 5.6 2.7 2.6 81 1.2 NW 7 11 4 6 1021.5 1021.5 0.0
30/02:30am 5.8 2.6 3.0 82 1.2 WNW 9 11 5 6 1021.4 1021.4 0.0
30/02:00am 6.0 3.3 3.8 86 0.9 NNW 7 9 4 5 1021.2 1021.2 0.0
30/01:30am 5.0 2.3 3.7 91 0.5 N 7 41 4 22 1021.1 1021.1 0.0
30/01:00am 6.4 3.8 4.1 85 1.0 NNE 7 9 4 5 1021.0 1021.0 0.0
30/12:30am 7.4 4.9 4.0 79 1.5 N 6 7 3 4 1021.2 1021.2 0.0
30/12:00am 7.5 5.1 4.3 80 1.4 N 6 9 3 5 1021.2 1021.2 0.0
 
Date/Time
EST
Temp
°C
App
Temp
°C
Dew
Point
°C
Rel
Hum
%
Delta-T
°C
Wind Press
QNH
hPa
Press
MSL
hPa
Rain since
9am
mm
Dir  Spd
km/h
Gust
km/h
Spd
kts
Gust
kts
29/11:30pm 8.9 6.4 4.5 74 1.9 N 7 9 4 5 1021.4 1021.4 0.0
29/11:00pm 9.1 6.7 4.5 73 2.0 NNW 6 7 3 4 1021.4 1021.4 0.0
29/10:30pm 9.0 6.5 5.0 76 1.8 N 7 9 4 5 1021.5 1021.5 0.0
29/10:00pm 9.0 6.5 4.8 75 1.9 N 7 9 4 5 1021.6 1021.6 0.0
29/09:30pm 8.5 6.1 5.1 79 1.5 N 7 9 4 5 1021.9 1021.9 0.0
29/09:00pm 9.1 6.7 5.1 76 1.8 N 7 9 4 5 1021.9 1021.9 0.0
29/08:30pm 7.9 5.1 5.2 83 1.2 NNE 9 11 5 6 1021.8 1021.8 0.0
29/08:00pm 8.4 5.9 5.0 79 1.5 N 7 9 4 5 1021.6 1021.6 0.0
29/07:30pm 8.5 7.4 4.9 78 1.6 CALM 0 0 0 0 1021.4 1021.4 0.0
29/07:00pm 9.5 8.0 5.1 74 2.0 NNE 2 6 1 3 1021.3 1021.3 0.0
29/06:30pm 10.2 8.3 5.0 70 2.4 N 4 7 2 4 1021.4 1021.4 0.0
29/06:00pm 10.4 7.6 5.2 70 2.4 NNE 9 11 5 6 1021.2 1021.2 0.0
29/05:30pm 11.6 8.7 4.6 62 3.2 N 9 15 5 8 1021.8 1021.8 0.0
29/05:00pm 11.9 9.4 4.9 62 3.2 N 7 13 4 7 1021.3 1021.3 0.0
29/04:30pm 12.3 9.7 4.3 58 3.6 NW 7 11 4 6 1021.0 1021.0 0.0
29/04:00pm 12.8 10.2 4.0 55 4.0 NNW 7 13 4 7 1020.9 1020.9 0.0
29/03:30pm 12.9 9.5 4.1 55 4.0 N 11 13 6 7 1021.1 1021.1 0.0

Other formats

Comma delimited format used in spreadsheet applications
http://www.bom.gov.au/fwo/IDV60801/IDV60801.94693.axf

JavaScript Object Notation format (JSON) in row-major order
http://www.bom.gov.au/fwo/IDV60801/IDV60801.94693.json

Data quality

Most of these data are generated automatically and are frequently updated. Quality checks on data are not normally performed. It is possible for incorrect values to appear. Refer to information at About Latest Weather Observations and please check the disclaimer before using these data.